Airport View

Enter AWOS ICAO identifier for current METAR.

ex. KFNL

KSVE 262155Z AUTO 10007KT 10SM CLR 18/M06 A3035 RMK AO2

26 Feb 2020 21:56

Frequency: 133.8

Phone: 530-257-0315

Other Area AWOS: KRTS - KRNO - KBLU - KAAT

TAF KRNO 261732Z 2618/2718 VRB03KT P6SM FEW180 SCT250 FM262200 32006KT P6SM FEW200 FM270300 VRB03KT P6SM SKC